createdAt,value
2023-09-14T00:01:56.600Z,14.48
2023-09-14T00:04:54.592Z,23.67
2023-09-14T00:07:52.538Z,17.00
2023-09-14T00:11:00.038Z,17.00
2023-09-14T00:13:57.920Z,14.68
2023-09-14T00:16:55.830Z,17.27
2023-09-14T00:19:53.654Z,17.25
2023-09-14T00:22:52.711Z,17.42
2023-09-14T00:25:51.034Z,11.82
2023-09-14T00:28:49.059Z,12.27
2023-09-14T00:31:46.951Z,22.95
2023-09-14T00:34:44.878Z,21.20
2023-09-14T00:37:43.623Z,14.95
2023-09-14T00:40:41.578Z,13.63
2023-09-14T00:43:40.855Z,17.00
2023-09-14T00:46:38.836Z,18.75
2023-09-14T00:49:36.798Z,18.92
2023-09-14T00:52:37.564Z,21.75
2023-09-14T00:55:35.790Z,15.82
2023-09-14T00:58:34.034Z,13.68
2023-09-14T01:01:33.751Z,13.27
2023-09-14T01:04:34.960Z,14.77
2023-09-14T01:07:32.797Z,12.50
2023-09-14T01:10:30.726Z,14.50
2023-09-14T01:13:39.667Z,12.90
2023-09-14T01:16:48.324Z,20.20
2023-09-14T01:19:59.919Z,18.35
2023-09-14T01:23:19.611Z,13.20
2023-09-14T01:26:17.926Z,17.42
2023-09-14T01:29:15.862Z,16.77
2023-09-14T01:32:13.681Z,20.15
2023-09-14T01:35:11.657Z,17.60
2023-09-14T01:38:09.962Z,14.55
2023-09-14T01:41:08.435Z,20.52
2023-09-14T01:44:06.720Z,22.20
2023-09-14T01:47:06.810Z,12.90
2023-09-14T01:50:04.996Z,15.63
2023-09-14T01:53:03.190Z,13.20
2023-09-14T01:56:01.203Z,11.38
2023-09-14T01:58:59.174Z,14.52
2023-09-14T02:01:57.274Z,14.18
2023-09-14T02:04:55.214Z,14.60
2023-09-14T02:07:53.040Z,11.50
2023-09-14T02:10:51.222Z,19.38
2023-09-14T02:13:48.961Z,15.52
2023-09-14T02:16:46.976Z,17.83
2023-09-14T02:19:45.165Z,14.00
2023-09-14T02:22:43.075Z,13.45
2023-09-14T02:25:44.438Z,12.45
2023-09-14T02:28:42.336Z,10.90
2023-09-14T02:31:40.157Z,10.50
2023-09-14T02:34:38.123Z,16.52
2023-09-14T02:37:35.878Z,12.82
2023-09-14T02:40:34.767Z,16.35
2023-09-14T02:43:32.513Z,12.63
2023-09-14T02:46:30.476Z,11.25
2023-09-14T02:49:28.278Z,14.45
2023-09-14T02:52:26.207Z,14.60
2023-09-14T02:55:24.024Z,12.18
2023-09-14T02:58:21.992Z,11.23
2023-09-14T03:01:22.641Z,14.60
2023-09-14T03:04:21.184Z,10.88
2023-09-14T03:07:19.305Z,12.63
2023-09-14T03:10:17.339Z,12.13
2023-09-14T03:13:15.239Z,10.77
2023-09-14T03:16:13.436Z,15.95
2023-09-14T03:19:11.372Z,14.20
2023-09-14T03:22:09.461Z,10.38
2023-09-14T03:25:08.200Z,12.05
2023-09-14T03:28:06.339Z,10.98
2023-09-14T03:31:04.210Z,9.25
2023-09-14T03:34:02.431Z,12.80
2023-09-14T03:37:00.337Z,14.52
2023-09-14T03:39:58.269Z,16.52
2023-09-14T03:42:56.083Z,16.33
2023-09-14T03:45:54.067Z,15.88
2023-09-14T03:48:51.893Z,13.27
2023-09-14T03:51:49.873Z,14.10
2023-09-14T03:54:47.692Z,12.70
2023-09-14T03:57:49.396Z,20.10
2023-09-14T04:00:47.399Z,17.25
2023-09-14T04:03:46.583Z,21.00
2023-09-14T04:06:44.477Z,16.48
2023-09-14T04:09:43.608Z,11.32
2023-09-14T04:12:43.340Z,11.80
2023-09-14T04:15:44.262Z,35.40
2023-09-14T04:18:42.285Z,51.65
2023-09-14T04:21:41.450Z,95.93
2023-09-14T04:24:39.263Z,68.45
2023-09-14T04:27:37.254Z,35.60
2023-09-14T04:30:40.537Z,167.55
2023-09-14T04:33:38.551Z,57.42
2023-09-14T04:36:39.038Z,25.27
2023-09-14T04:39:37.347Z,47.55
2023-09-14T04:42:35.124Z,29.88
2023-09-14T04:45:33.674Z,44.22
2023-09-14T04:48:31.559Z,20.05
2023-09-14T04:51:29.495Z,21.13
2023-09-14T04:54:27.234Z,18.20
2023-09-14T04:57:26.675Z,32.47
2023-09-14T05:00:25.266Z,36.03
2023-09-14T05:03:23.301Z,20.33
2023-09-14T05:06:21.155Z,27.65
2023-09-14T05:09:19.217Z,11.52
2023-09-14T05:12:17.037Z,17.60
2023-09-14T05:15:14.948Z,30.77
2023-09-14T05:18:12.746Z,17.90
2023-09-14T05:21:10.655Z,25.27
2023-09-14T05:24:08.458Z,22.90
2023-09-14T05:27:06.676Z,29.30
2023-09-14T05:30:04.899Z,21.50
2023-09-14T05:33:03.022Z,23.30
2023-09-14T05:36:00.915Z,20.52
2023-09-14T05:38:58.846Z,20.52
2023-09-14T05:41:56.625Z,39.42
2023-09-14T05:44:54.807Z,29.58
2023-09-14T05:47:52.750Z,15.70
2023-09-14T05:50:50.727Z,19.38
2023-09-14T05:53:48.582Z,28.10
2023-09-14T05:56:46.479Z,20.23
2023-09-14T05:59:44.704Z,22.73
2023-09-14T06:02:44.422Z,28.95
2023-09-14T06:05:42.330Z,27.20
2023-09-14T06:08:42.147Z,35.58
2023-09-14T06:11:42.027Z,32.05
2023-09-14T06:14:39.884Z,32.50
2023-09-14T06:17:37.958Z,68.43
2023-09-14T06:20:36.071Z,32.03
2023-09-14T06:23:33.950Z,31.80
2023-09-14T06:26:32.507Z,32.30
2023-09-14T06:29:30.341Z,32.90
2023-09-14T06:32:28.266Z,34.08
2023-09-14T06:35:26.649Z,28.25
2023-09-14T06:38:24.541Z,25.45
2023-09-14T06:41:22.379Z,24.35
2023-09-14T06:44:20.864Z,34.13
2023-09-14T06:47:19.595Z,23.60
2023-09-14T06:50:18.505Z,24.90
2023-09-14T06:53:17.208Z,42.10
2023-09-14T06:56:16.962Z,31.17
2023-09-14T06:59:16.039Z,35.95
2023-09-14T07:02:14.037Z,30.80
2023-09-14T07:05:12.243Z,32.97
2023-09-14T07:08:10.219Z,38.03
2023-09-14T07:11:08.063Z,28.70
2023-09-14T07:14:06.115Z,28.92
2023-09-14T07:17:03.975Z,37.60
2023-09-14T07:20:01.955Z,37.55
2023-09-14T07:23:00.592Z,36.35
2023-09-14T07:25:58.799Z,32.88
2023-09-14T07:28:56.604Z,33.72
2023-09-14T07:31:54.793Z,31.38
2023-09-14T07:34:52.912Z,30.75
2023-09-14T07:37:50.960Z,27.77
2023-09-14T07:40:49.910Z,36.20
2023-09-14T07:43:48.215Z,41.30
2023-09-14T07:46:48.531Z,43.00
2023-09-14T07:49:47.361Z,42.13
2023-09-14T07:52:45.301Z,36.97
2023-09-14T07:55:43.201Z,41.28
2023-09-14T07:58:41.029Z,49.28
2023-09-14T08:01:38.963Z,47.08
2023-09-14T08:04:37.051Z,51.28
2023-09-14T08:07:35.053Z,60.75
2023-09-14T08:10:32.827Z,57.63
2023-09-14T08:13:30.754Z,55.65
2023-09-14T08:16:32.678Z,60.28
2023-09-14T08:19:30.639Z,51.93
2023-09-14T08:22:29.143Z,68.07
2023-09-14T08:25:27.083Z,57.70
2023-09-14T08:28:24.933Z,56.00
2023-09-14T08:31:23.285Z,62.72
2023-09-14T08:34:21.215Z,61.92
2023-09-14T08:37:19.833Z,51.92
2023-09-14T08:40:20.209Z,50.80
2023-09-14T08:43:21.075Z,53.35
2023-09-14T08:46:20.842Z,57.03
2023-09-14T08:49:21.654Z,51.55
2023-09-14T08:52:21.749Z,56.40
2023-09-14T08:55:21.442Z,58.75
2023-09-14T08:58:21.491Z,62.00
2023-09-14T09:01:19.580Z,55.47
2023-09-14T09:04:17.922Z,58.85
2023-09-14T09:07:17.164Z,59.67
2023-09-14T09:10:25.723Z,58.05
2023-09-14T09:13:23.970Z,54.35
2023-09-14T09:16:21.943Z,63.33
2023-09-14T09:19:20.040Z,62.50
2023-09-14T09:22:18.867Z,88.50
2023-09-14T09:25:17.109Z,72.93
2023-09-14T09:28:15.386Z,88.90
2023-09-14T09:31:13.351Z,74.07
2023-09-14T09:34:13.041Z,201.63
2023-09-14T09:37:11.002Z,67.18
2023-09-14T09:40:14.827Z,59.22
2023-09-14T09:43:17.810Z,61.47
2023-09-14T09:46:18.331Z,101.32
2023-09-14T09:49:20.376Z,61.45
2023-09-14T09:52:18.386Z,59.70
2023-09-14T09:55:19.629Z,67.63
2023-09-14T09:58:19.043Z,71.15
2023-09-14T10:01:22.740Z,64.60
2023-09-14T10:04:20.641Z,60.05
2023-09-14T10:07:24.642Z,63.88
2023-09-14T10:10:26.889Z,75.88
2023-09-14T10:13:26.518Z,78.55
2023-09-14T10:16:28.006Z,80.72
2023-09-14T10:19:27.955Z,56.75
2023-09-14T10:22:27.081Z,55.60
2023-09-14T10:25:25.060Z,54.50
2023-09-14T10:28:23.960Z,50.38
2023-09-14T10:31:22.986Z,53.55
2023-09-14T10:34:21.569Z,63.63
2023-09-14T10:37:22.027Z,61.90
2023-09-14T10:40:20.054Z,50.08
2023-09-14T10:43:18.494Z,62.80
2023-09-14T10:46:20.390Z,59.92
2023-09-14T10:49:18.555Z,64.20
2023-09-14T10:52:26.493Z,47.38
2023-09-14T10:55:27.867Z,52.08
2023-09-14T10:58:25.857Z,57.55
2023-09-14T11:01:27.767Z,53.75
2023-09-14T11:04:29.562Z,47.25
2023-09-14T11:07:46.403Z,50.38
2023-09-14T11:10:56.601Z,50.30
2023-09-14T11:13:59.446Z,45.55
2023-09-14T11:17:00.257Z,42.10
2023-09-14T11:20:00.181Z,39.38
2023-09-14T11:23:04.946Z,68.20
2023-09-14T11:26:12.304Z,38.10
2023-09-14T11:29:14.407Z,38.92
2023-09-14T11:32:16.557Z,84.60
2023-09-14T11:35:15.364Z,46.60
2023-09-14T11:38:19.313Z,32.75
2023-09-14T11:41:40.754Z,41.08
2023-09-14T11:44:53.137Z,39.80
2023-09-14T11:47:57.473Z,52.63
2023-09-14T11:50:58.428Z,67.00
2023-09-14T11:54:01.352Z,40.53
2023-09-14T11:57:06.228Z,33.55
2023-09-14T12:00:07.341Z,32.53
2023-09-14T12:03:05.735Z,32.15
2023-09-14T12:06:05.744Z,31.98
2023-09-14T12:09:16.363Z,31.17
2023-09-14T12:12:32.024Z,30.70
2023-09-14T12:15:31.825Z,41.80
2023-09-14T12:18:45.148Z,43.83
2023-09-14T12:21:44.011Z,69.43
2023-09-14T12:24:42.622Z,33.53
2023-09-14T12:27:40.911Z,69.43
2023-09-14T12:30:40.494Z,35.70
2023-09-14T12:33:39.706Z,38.10
2023-09-14T12:36:37.646Z,32.80
2023-09-14T12:39:36.192Z,33.78
2023-09-14T12:42:35.816Z,32.78
2023-09-14T12:45:36.208Z,48.00
2023-09-14T12:48:34.253Z,36.78
2023-09-14T12:51:32.681Z,34.58
2023-09-14T12:54:30.940Z,39.08
2023-09-14T12:57:29.071Z,34.05
2023-09-14T13:00:29.309Z,32.60
2023-09-14T13:03:27.593Z,33.60
2023-09-14T13:06:25.592Z,38.40
2023-09-14T13:09:24.707Z,32.10
2023-09-14T13:12:29.662Z,41.05
2023-09-14T13:15:31.128Z,32.58
2023-09-14T13:18:29.539Z,31.70
2023-09-14T13:21:28.426Z,29.65
2023-09-14T13:24:26.313Z,37.65
2023-09-14T13:27:24.390Z,37.70
2023-09-14T13:30:23.028Z,34.55
2023-09-14T13:33:22.590Z,35.05
2023-09-14T13:36:20.747Z,44.15
2023-09-14T13:39:18.653Z,49.67
2023-09-14T13:42:16.541Z,51.10
2023-09-14T13:45:15.160Z,53.60
2023-09-14T13:48:12.966Z,58.40
2023-09-14T13:51:13.627Z,58.13
2023-09-14T13:54:11.466Z,57.55
2023-09-14T13:57:09.419Z,55.55
2023-09-14T14:00:10.588Z,63.83
2023-09-14T14:03:10.744Z,66.65
2023-09-14T14:06:09.334Z,63.80
2023-09-14T14:09:07.938Z,69.88
2023-09-14T14:12:10.433Z,61.42
2023-09-14T14:15:10.881Z,56.10
2023-09-14T14:18:10.952Z,54.03
2023-09-14T14:21:08.894Z,57.58
2023-09-14T14:24:07.388Z,47.97
2023-09-14T14:27:05.721Z,48.80
2023-09-14T14:30:04.259Z,47.28
2023-09-14T14:33:02.273Z,49.13
2023-09-14T14:36:00.101Z,48.53
2023-09-14T14:38:58.757Z,47.25
2023-09-14T14:41:56.780Z,46.90
2023-09-14T14:44:54.802Z,46.40
2023-09-14T14:47:52.650Z,42.75
2023-09-14T14:50:58.873Z,45.20
2023-09-14T14:53:56.848Z,37.97
2023-09-14T14:56:57.566Z,37.50
2023-09-14T14:59:56.924Z,36.15
2023-09-14T15:02:54.937Z,31.25
2023-09-14T15:05:53.167Z,29.75
2023-09-14T15:08:51.118Z,31.33
2023-09-14T15:11:51.136Z,28.35
2023-09-14T15:14:49.051Z,26.27
2023-09-14T15:17:46.985Z,29.55
2023-09-14T15:20:51.470Z,27.35
2023-09-14T15:23:49.393Z,30.58
2023-09-14T15:26:47.602Z,33.85
2023-09-14T15:29:45.517Z,29.92
2023-09-14T15:32:44.977Z,27.77
2023-09-14T15:35:43.092Z,28.90
2023-09-14T15:38:45.064Z,26.17
2023-09-14T15:41:43.222Z,32.47
2023-09-14T15:44:47.546Z,29.70
2023-09-14T15:47:46.486Z,30.17
2023-09-14T15:50:44.571Z,32.13
2023-09-14T15:53:42.427Z,26.98
2023-09-14T15:56:40.373Z,29.80
2023-09-14T15:59:38.250Z,26.42
2023-09-14T16:02:39.119Z,26.15
2023-09-14T16:05:37.043Z,28.88
2023-09-14T16:08:35.045Z,26.20
2023-09-14T16:11:33.061Z,31.77
2023-09-14T16:14:32.296Z,27.65
2023-09-14T16:17:30.334Z,25.13
2023-09-14T16:20:28.272Z,29.92
2023-09-14T16:23:26.680Z,25.45
2023-09-14T16:26:25.692Z,24.60
2023-09-14T16:29:23.477Z,25.63
2023-09-14T16:32:21.373Z,28.85
2023-09-14T16:35:19.399Z,27.40
2023-09-14T16:38:17.965Z,23.42
2023-09-14T16:41:16.396Z,20.45
2023-09-14T16:44:14.315Z,21.83
2023-09-14T16:47:12.293Z,22.40
2023-09-14T16:50:12.455Z,21.58
2023-09-14T16:53:10.233Z,22.63
2023-09-14T16:56:09.574Z,27.27
2023-09-14T16:59:07.350Z,19.63
2023-09-14T17:02:06.768Z,20.70
2023-09-14T17:05:05.587Z,25.02
2023-09-14T17:08:03.549Z,23.58
2023-09-14T17:11:01.406Z,25.42
2023-09-14T17:13:59.328Z,20.85
2023-09-14T17:16:57.131Z,23.80
2023-09-14T17:19:55.697Z,23.45
2023-09-14T17:22:53.460Z,22.08
2023-09-14T17:25:55.385Z,22.13
2023-09-14T17:28:54.054Z,32.25
2023-09-14T17:31:53.390Z,34.35
2023-09-14T17:34:51.204Z,39.88
2023-09-14T17:37:51.145Z,32.35
2023-09-14T17:40:49.053Z,29.98
2023-09-14T17:43:47.031Z,31.15
2023-09-14T17:46:44.910Z,31.05
2023-09-14T17:49:42.768Z,29.33
2023-09-14T17:52:41.165Z,28.42
2023-09-14T17:55:39.112Z,24.77
2023-09-14T17:58:37.197Z,28.85
2023-09-14T18:01:35.933Z,30.08
2023-09-14T18:04:35.992Z,25.85
2023-09-14T18:07:34.854Z,24.33
2023-09-14T18:10:34.824Z,23.70
2023-09-14T18:13:32.770Z,35.10
2023-09-14T18:16:30.601Z,27.25
2023-09-14T18:19:31.422Z,27.25
2023-09-14T18:22:29.353Z,23.88
2023-09-14T18:25:27.806Z,21.48
2023-09-14T18:28:28.416Z,26.48
2023-09-14T18:31:26.603Z,28.48
2023-09-14T18:34:24.539Z,28.90
2023-09-14T18:37:22.490Z,23.00
2023-09-14T18:40:21.076Z,21.65
2023-09-14T18:43:18.930Z,21.27
2023-09-14T18:46:19.347Z,21.98
2023-09-14T18:49:18.042Z,22.45
2023-09-14T18:52:15.926Z,22.33
2023-09-14T18:55:13.835Z,28.02
2023-09-14T18:58:23.104Z,21.38
2023-09-14T19:01:29.593Z,21.13
2023-09-14T19:04:27.514Z,26.25
2023-09-14T19:07:25.483Z,23.23
2023-09-14T19:10:23.339Z,24.45
2023-09-14T19:13:21.498Z,17.30
2023-09-14T19:16:19.430Z,23.05
2023-09-14T19:19:18.731Z,20.13
2023-09-14T19:22:16.626Z,23.40
2023-09-14T19:25:15.669Z,21.20
2023-09-14T19:28:13.582Z,18.00
2023-09-14T19:31:15.634Z,21.73
2023-09-14T19:34:13.407Z,19.27
2023-09-14T19:37:11.396Z,19.75
2023-09-14T19:40:10.052Z,21.13
2023-09-14T19:43:08.033Z,24.38
2023-09-14T19:46:06.997Z,20.38
2023-09-14T19:49:05.154Z,28.77
2023-09-14T19:52:03.024Z,27.30
2023-09-14T19:55:02.821Z,22.42
2023-09-14T19:58:00.989Z,22.75
2023-09-14T20:00:59.128Z,27.13
2023-09-14T20:03:57.131Z,29.65
2023-09-14T20:06:55.208Z,33.47
2023-09-14T20:09:53.102Z,36.33
2023-09-14T20:12:51.130Z,37.85
2023-09-14T20:15:49.179Z,38.63
2023-09-14T20:18:47.888Z,43.33
2023-09-14T20:21:45.994Z,44.13
2023-09-14T20:24:45.872Z,39.20
2023-09-14T20:27:44.145Z,36.65
2023-09-14T20:30:42.384Z,33.13
2023-09-14T20:33:40.346Z,36.95
2023-09-14T20:36:38.740Z,33.20
2023-09-14T20:39:36.559Z,33.08
2023-09-14T20:42:35.342Z,31.13
2023-09-14T20:45:33.193Z,40.22
2023-09-14T20:48:31.651Z,38.92
2023-09-14T20:51:29.570Z,32.53
2023-09-14T20:54:27.487Z,35.63
2023-09-14T20:57:26.072Z,32.05
2023-09-14T21:00:24.349Z,33.85
2023-09-14T21:03:22.805Z,27.88
2023-09-14T21:06:20.730Z,33.33
2023-09-14T21:09:18.530Z,33.80
2023-09-14T21:12:16.439Z,36.70
2023-09-14T21:15:14.261Z,33.40
2023-09-14T21:18:12.178Z,30.98
2023-09-14T21:21:10.898Z,33.53
2023-09-14T21:24:09.246Z,24.13
2023-09-14T21:27:07.068Z,28.83
2023-09-14T21:30:06.702Z,27.88
2023-09-14T21:33:04.687Z,26.92
2023-09-14T21:36:02.598Z,23.10
2023-09-14T21:39:00.336Z,23.60
2023-09-14T21:41:58.233Z,32.55
2023-09-14T21:44:56.083Z,18.60
2023-09-14T21:47:54.049Z,27.75
2023-09-14T21:50:52.124Z,21.02
2023-09-14T21:53:50.071Z,25.33
2023-09-14T21:56:48.445Z,29.45
2023-09-14T21:59:46.356Z,27.02
2023-09-14T22:02:44.282Z,25.00
2023-09-14T22:05:44.750Z,28.77
2023-09-14T22:08:42.532Z,31.60
2023-09-14T22:11:40.739Z,29.85
2023-09-14T22:14:39.150Z,28.38
2023-09-14T22:17:38.152Z,24.63
2023-09-14T22:20:40.164Z,26.98
2023-09-14T22:23:38.283Z,22.10
2023-09-14T22:26:37.569Z,24.50
2023-09-14T22:29:35.537Z,24.10
2023-09-14T22:32:35.920Z,25.75
2023-09-14T22:35:33.829Z,25.02
2023-09-14T22:38:31.680Z,24.95
2023-09-14T22:41:30.573Z,18.23
2023-09-14T22:44:28.419Z,19.95
2023-09-14T22:47:26.312Z,23.60
2023-09-14T22:50:24.142Z,23.10
2023-09-14T22:53:22.089Z,27.42
2023-09-14T22:56:20.746Z,23.08
2023-09-14T22:59:20.577Z,27.60
2023-09-14T23:02:18.340Z,24.60
2023-09-14T23:05:16.368Z,23.10
2023-09-14T23:08:14.353Z,27.17
2023-09-14T23:11:14.476Z,21.80
2023-09-14T23:14:13.236Z,24.13
2023-09-14T23:17:11.174Z,25.15
2023-09-14T23:20:22.487Z,26.92
2023-09-14T23:23:20.639Z,25.67
2023-09-14T23:26:18.451Z,29.42
2023-09-14T23:29:19.326Z,24.10
2023-09-14T23:32:17.068Z,24.65
2023-09-14T23:35:17.679Z,27.67
2023-09-14T23:38:15.567Z,25.90
2023-09-14T23:41:14.049Z,22.00
2023-09-14T23:44:13.723Z,21.52
2023-09-14T23:47:11.685Z,24.60
2023-09-14T23:50:13.860Z,22.63
2023-09-14T23:53:12.467Z,23.23
2023-09-14T23:56:10.382Z,26.90
2023-09-14T23:59:11.374Z,23.23
